sensor_id;sensor_type;location;lat;lon;timestamp;pressure;altitude;pressure_sealevel;temperature;humidity
81897;BME280;71360;43.506;1.500;2024-01-25T00:01:25;100748.47;;;9.86;85.81
81897;BME280;71360;43.506;1.500;2024-01-25T00:03:50;100755.69;;;9.82;85.55
81897;BME280;71360;43.506;1.500;2024-01-25T00:06:16;100745.06;;;9.79;85.81
81897;BME280;71360;43.506;1.500;2024-01-25T00:08:41;100741.56;;;9.77;85.52
81897;BME280;71360;43.506;1.500;2024-01-25T00:11:07;100738.03;;;9.75;85.80
81897;BME280;71360;43.506;1.500;2024-01-25T00:13:32;100745.13;;;9.76;86.49
81897;BME280;71360;43.506;1.500;2024-01-25T00:15:58;100736.19;;;9.78;86.55
81897;BME280;71360;43.506;1.500;2024-01-25T00:18:23;100737.06;;;9.79;87.04
81897;BME280;71360;43.506;1.500;2024-01-25T00:20:49;100732.59;;;9.79;86.59
81897;BME280;71360;43.506;1.500;2024-01-25T00:23:14;100732.56;;;9.81;86.67
81897;BME280;71360;43.506;1.500;2024-01-25T00:25:40;100738.78;;;9.82;86.71
81897;BME280;71360;43.506;1.500;2024-01-25T00:28:05;100731.72;;;9.79;86.44
81897;BME280;71360;43.506;1.500;2024-01-25T00:30:31;100723.75;;;9.77;86.28
81897;BME280;71360;43.506;1.500;2024-01-25T00:32:57;100724.69;;;9.75;86.26
81897;BME280;71360;43.506;1.500;2024-01-25T00:35:23;100722.13;;;9.70;86.24
81897;BME280;71360;43.506;1.500;2024-01-25T00:37:49;100719.59;;;9.66;86.36
81897;BME280;71360;43.506;1.500;2024-01-25T00:40:15;100716.09;;;9.62;86.14
81897;BME280;71360;43.506;1.500;2024-01-25T00:42:43;100713.56;;;9.57;85.94
81897;BME280;71360;43.506;1.500;2024-01-25T00:45:09;100707.41;;;9.54;85.96
81897;BME280;71360;43.506;1.500;2024-01-25T00:47:35;100707.47;;;9.49;85.97
81897;BME280;71360;43.506;1.500;2024-01-25T00:50:01;100705.78;;;9.45;85.77
81897;BME280;71360;43.506;1.500;2024-01-25T00:52:27;100708.63;;;9.39;85.86
81897;BME280;71360;43.506;1.500;2024-01-25T00:54:53;100706.94;;;9.35;85.32
81897;BME280;71360;43.506;1.500;2024-01-25T00:57:18;100703.47;;;9.29;85.61
81897;BME280;71360;43.506;1.500;2024-01-25T00:59:44;100708.03;;;9.24;85.43
81897;BME280;71360;43.506;1.500;2024-01-25T01:02:12;100707.19;;;9.22;86.07
81897;BME280;71360;43.506;1.500;2024-01-25T01:04:38;100706.38;;;9.19;85.68
81897;BME280;71360;43.506;1.500;2024-01-25T01:07:04;100707.31;;;9.16;86.33
81897;BME280;71360;43.506;1.500;2024-01-25T01:09:30;100703.81;;;9.14;86.38
81897;BME280;71360;43.506;1.500;2024-01-25T01:11:56;100696.72;;;9.13;86.36
81897;BME280;71360;43.506;1.500;2024-01-25T01:14:21;100700.28;;;9.12;86.73
81897;BME280;71360;43.506;1.500;2024-01-25T01:16:47;100702.00;;;9.15;87.02
81897;BME280;71360;43.506;1.500;2024-01-25T01:19:12;100692.22;;;9.17;87.13
81897;BME280;71360;43.506;1.500;2024-01-25T01:21:38;100698.38;;;9.19;87.37
81897;BME280;71360;43.506;1.500;2024-01-25T01:24:04;100693.03;;;9.19;87.56
81897;BME280;71360;43.506;1.500;2024-01-25T01:26:30;100700.22;;;9.17;87.21
81897;BME280;71360;43.506;1.500;2024-01-25T01:28:55;100699.38;;;9.13;87.31
81897;BME280;71360;43.506;1.500;2024-01-25T01:31:21;100690.63;;;9.06;87.13
81897;BME280;71360;43.506;1.500;2024-01-25T01:33:46;100700.47;;;9.03;87.07
81897;BME280;71360;43.506;1.500;2024-01-25T01:36:13;100689.03;;;8.99;87.06
81897;BME280;71360;43.506;1.500;2024-01-25T01:38:38;100689.97;;;8.97;87.10
81897;BME280;71360;43.506;1.500;2024-01-25T01:41:04;100691.84;;;8.91;87.04
81897;BME280;71360;43.506;1.500;2024-01-25T01:43:29;100691.91;;;8.88;87.16
81897;BME280;71360;43.506;1.500;2024-01-25T01:46:01;100699.03;;;8.86;86.96
81897;BME280;71360;43.506;1.500;2024-01-25T01:48:29;100699.09;;;8.83;86.87
81897;BME280;71360;43.506;1.500;2024-01-25T01:50:55;100704.50;;;8.80;86.99
81897;BME280;71360;43.506;1.500;2024-01-25T01:53:21;100703.69;;;8.76;87.18
81897;BME280;71360;43.506;1.500;2024-01-25T01:55:47;100700.19;;;8.73;86.76
81897;BME280;71360;43.506;1.500;2024-01-25T01:58:13;100709.13;;;8.72;86.85
81897;BME280;71360;43.506;1.500;2024-01-25T02:00:40;100710.03;;;8.71;87.29
81897;BME280;71360;43.506;1.500;2024-01-25T02:03:06;100709.13;;;8.70;87.08
81897;BME280;71360;43.506;1.500;2024-01-25T02:05:32;100705.56;;;8.71;87.25
81897;BME280;71360;43.506;1.500;2024-01-25T02:07:57;100698.41;;;8.73;87.42
81897;BME280;71360;43.506;1.500;2024-01-25T02:10:22;100704.63;;;8.74;87.14
81897;BME280;71360;43.506;1.500;2024-01-25T02:12:48;100706.31;;;8.78;87.19
81897;BME280;71360;43.506;1.500;2024-01-25T02:15:13;100708.03;;;8.81;87.07
81897;BME280;71360;43.506;1.500;2024-01-25T02:17:40;100701.78;;;8.83;87.41
81897;BME280;71360;43.506;1.500;2024-01-25T02:20:06;100686.59;;;8.87;87.20
81897;BME280;71360;43.506;1.500;2024-01-25T02:22:32;100685.63;;;8.89;87.33
81897;BME280;71360;43.506;1.500;2024-01-25T02:24:57;100675.75;;;8.94;87.10
81897;BME280;71360;43.506;1.500;2024-01-25T02:27:23;100679.22;;;9.00;87.17
81897;BME280;71360;43.506;1.500;2024-01-25T02:29:48;100671.13;;;9.03;87.23
81897;BME280;71360;43.506;1.500;2024-01-25T02:32:14;100667.50;;;9.08;87.49
81897;BME280;71360;43.506;1.500;2024-01-25T02:34:39;100675.38;;;9.13;87.52
81897;BME280;71360;43.506;1.500;2024-01-25T02:37:05;100672.56;;;9.21;87.28
81897;BME280;71360;43.506;1.500;2024-01-25T02:39:30;100670.69;;;9.24;87.53
81897;BME280;71360;43.506;1.500;2024-01-25T02:41:56;100665.19;;;9.32;87.62
81897;BME280;71360;43.506;1.500;2024-01-25T02:44:21;100658.91;;;9.35;87.40
81897;BME280;71360;43.506;1.500;2024-01-25T02:46:47;100657.00;;;9.38;87.63
81897;BME280;71360;43.506;1.500;2024-01-25T02:49:12;100660.50;;;9.42;88.09
81897;BME280;71360;43.506;1.500;2024-01-25T02:51:38;100657.75;;;9.46;87.47
81897;BME280;71360;43.506;1.500;2024-01-25T02:54:03;100655.00;;;9.50;87.58
81897;BME280;71360;43.506;1.500;2024-01-25T02:56:29;100656.72;;;9.52;87.80
81897;BME280;71360;43.506;1.500;2024-01-25T02:59:01;100653.06;;;9.56;87.51
81897;BME280;71360;43.506;1.500;2024-01-25T03:01:27;100647.69;;;9.58;87.43
81897;BME280;71360;43.506;1.500;2024-01-25T03:04:01;100646.69;;;9.62;87.92
81897;BME280;71360;43.506;1.500;2024-01-25T03:06:27;100649.38;;;9.62;88.16
81897;BME280;71360;43.506;1.500;2024-01-25T03:11:39;100638.59;;;9.65;88.10
81897;BME280;71360;43.506;1.500;2024-01-25T03:14:07;100623.44;;;9.67;87.99
81897;BME280;71360;43.506;1.500;2024-01-25T03:54:19;100592.03;;;9.77;87.43
81897;BME280;71360;43.506;1.500;2024-01-25T04:09:42;100584.06;;;9.75;87.42
81897;BME280;71360;43.506;1.500;2024-01-25T04:15:51;100580.59;;;9.72;87.78
81897;BME280;71360;43.506;1.500;2024-01-25T04:18:17;100574.34;;;9.73;87.87
81897;BME280;71360;43.506;1.500;2024-01-25T04:20:43;100573.44;;;9.72;87.68
81897;BME280;71360;43.506;1.500;2024-01-25T04:23:09;100576.13;;;9.72;87.45
81897;BME280;71360;43.506;1.500;2024-01-25T04:25:35;100574.34;;;9.73;87.63
81897;BME280;71360;43.506;1.500;2024-01-25T04:28:01;100577.03;;;9.73;87.59
81897;BME280;71360;43.506;1.500;2024-01-25T04:30:27;100570.78;;;9.72;87.55
81897;BME280;71360;43.506;1.500;2024-01-25T04:32:52;100579.69;;;9.73;87.91
81897;BME280;71360;43.506;1.500;2024-01-25T04:35:18;100565.50;;;9.71;87.82
81897;BME280;71360;43.506;1.500;2024-01-25T04:37:43;100565.50;;;9.71;88.01
81897;BME280;71360;43.506;1.500;2024-01-25T04:40:09;100574.44;;;9.70;87.51
81897;BME280;71360;43.506;1.500;2024-01-25T04:42:34;100577.16;;;9.67;87.46
81897;BME280;71360;43.506;1.500;2024-01-25T04:45:00;100566.63;;;9.62;87.39
81897;BME280;71360;43.506;1.500;2024-01-25T04:47:25;100569.31;;;9.60;87.88
81897;BME280;71360;43.506;1.500;2024-01-25T04:49:51;100565.75;;;9.60;87.78
81897;BME280;71360;43.506;1.500;2024-01-25T04:52:16;100553.41;;;9.57;87.54
81897;BME280;71360;43.506;1.500;2024-01-25T04:54:42;100554.34;;;9.55;87.27
81897;BME280;71360;43.506;1.500;2024-01-25T04:57:07;100565.97;;;9.52;87.14
81897;BME280;71360;43.506;1.500;2024-01-25T04:59:33;100569.56;;;9.51;87.45
81897;BME280;71360;43.506;1.500;2024-01-25T05:01:59;100567.84;;;9.49;87.71
81897;BME280;71360;43.506;1.500;2024-01-25T05:04:24;100569.69;;;9.46;87.61
81897;BME280;71360;43.506;1.500;2024-01-25T05:06:50;100570.66;;;9.42;87.55
81897;BME280;71360;43.506;1.500;2024-01-25T05:09:15;100574.25;;;9.41;87.31
81897;BME280;71360;43.506;1.500;2024-01-25T05:11:41;100567.19;;;9.39;87.45
81897;BME280;71360;43.506;1.500;2024-01-25T05:14:07;100569.91;;;9.37;87.56
81897;BME280;71360;43.506;1.500;2024-01-25T05:16:32;100569.13;;;9.32;87.33
81897;BME280;71360;43.506;1.500;2024-01-25T05:18:58;100564.78;;;9.28;87.72
81897;BME280;71360;43.506;1.500;2024-01-25T05:21:23;100581.72;;;9.25;87.50
81897;BME280;71360;43.506;1.500;2024-01-25T05:23:49;100564.91;;;9.23;87.38
81897;BME280;71360;43.506;1.500;2024-01-25T05:26:15;100565.84;;;9.21;87.77
81897;BME280;71360;43.506;1.500;2024-01-25T05:28:41;100558.75;;;9.20;87.54
81897;BME280;71360;43.506;1.500;2024-01-25T05:31:06;100558.84;;;9.17;87.41
81897;BME280;71360;43.506;1.500;2024-01-25T05:33:40;100564.22;;;9.13;87.55
81897;BME280;71360;43.506;1.500;2024-01-25T05:36:06;100566.09;;;9.10;87.50
81897;BME280;71360;43.506;1.500;2024-01-25T05:38:31;100560.81;;;9.08;87.49
81897;BME280;71360;43.506;1.500;2024-01-25T05:40:58;100545.72;;;9.07;87.24
81897;BME280;71360;43.506;1.500;2024-01-25T05:43:23;100550.16;;;9.07;87.56
81897;BME280;71360;43.506;1.500;2024-01-25T05:45:48;100549.38;;;9.03;87.04
81897;BME280;71360;43.506;1.500;2024-01-25T05:48:14;100553.06;;;8.98;87.13
81897;BME280;71360;43.506;1.500;2024-01-25T05:50:40;100547.84;;;8.91;87.19
81897;BME280;71360;43.506;1.500;2024-01-25T05:53:05;100550.63;;;8.87;87.23
81897;BME280;71360;43.506;1.500;2024-01-25T05:55:31;100562.25;;;8.84;87.72
81897;BME280;71360;43.506;1.500;2024-01-25T05:57:56;100558.72;;;8.82;87.54
81897;BME280;71360;43.506;1.500;2024-01-25T06:00:22;100561.41;;;8.81;87.67
81897;BME280;71360;43.506;1.500;2024-01-25T06:02:47;100553.50;;;8.77;87.55
81897;BME280;71360;43.506;1.500;2024-01-25T06:05:13;100550.00;;;8.74;87.15
81897;BME280;71360;43.506;1.500;2024-01-25T06:07:39;100555.41;;;8.71;87.68
81897;BME280;71360;43.506;1.500;2024-01-25T06:10:05;100552.78;;;8.69;87.23
81897;BME280;71360;43.506;1.500;2024-01-25T06:12:31;100553.69;;;8.68;87.36
81897;BME280;71360;43.506;1.500;2024-01-25T06:18:18;100565.28;;;8.66;87.91
81897;BME280;71360;43.506;1.500;2024-01-25T06:20:44;100561.81;;;8.64;87.65
81897;BME280;71360;43.506;1.500;2024-01-25T06:23:09;100567.13;;;8.64;87.44
81897;BME280;71360;43.506;1.500;2024-01-25T06:25:35;100557.38;;;8.63;87.39
81897;BME280;71360;43.506;1.500;2024-01-25T06:28:01;100559.19;;;8.60;87.58
81897;BME280;71360;43.506;1.500;2024-01-25T06:30:27;100557.44;;;8.59;87.65
81897;BME280;71360;43.506;1.500;2024-01-25T06:32:52;100562.78;;;8.59;87.63
81897;BME280;71360;43.506;1.500;2024-01-25T06:35:18;100555.69;;;8.58;87.44
81897;BME280;71360;43.506;1.500;2024-01-25T06:37:43;100561.91;;;8.57;87.17
81897;BME280;71360;43.506;1.500;2024-01-25T06:40:09;100558.38;;;8.57;87.09
81897;BME280;71360;43.506;1.500;2024-01-25T06:42:35;100556.66;;;8.54;87.06
81897;BME280;71360;43.506;1.500;2024-01-25T06:45:00;100561.13;;;8.52;87.30
81897;BME280;71360;43.506;1.500;2024-01-25T06:47:25;100554.03;;;8.51;87.43
81897;BME280;71360;43.506;1.500;2024-01-25T06:49:51;100562.06;;;8.50;87.46
81897;BME280;71360;43.506;1.500;2024-01-25T06:52:18;100563.00;;;8.47;87.00
81897;BME280;71360;43.506;1.500;2024-01-25T06:54:44;100561.28;;;8.46;87.29
81897;BME280;71360;43.506;1.500;2024-01-25T06:57:09;100560.41;;;8.42;86.85
81897;BME280;71360;43.506;1.500;2024-01-25T06:59:34;100558.72;;;8.38;86.72
81897;BME280;71360;43.506;1.500;2024-01-25T07:02:00;100553.47;;;8.35;86.63
81897;BME280;71360;43.506;1.500;2024-01-25T07:04:28;100552.66;;;8.32;86.92
81897;BME280;71360;43.506;1.500;2024-01-25T07:06:53;100553.63;;;8.27;86.65
81897;BME280;71360;43.506;1.500;2024-01-25T07:09:18;100551.03;;;8.24;86.97
81897;BME280;71360;43.506;1.500;2024-01-25T07:11:44;100547.53;;;8.21;87.14
81897;BME280;71360;43.506;1.500;2024-01-25T07:17:32;100544.19;;;8.11;87.30
81897;BME280;71360;43.506;1.500;2024-01-25T07:23:21;100550.56;;;8.01;86.39
81897;BME280;71360;43.506;1.500;2024-01-25T07:25:46;100552.44;;;7.97;86.32
81897;BME280;71360;43.506;1.500;2024-01-25T07:28:12;100553.44;;;7.91;86.76
81897;BME280;71360;43.506;1.500;2024-01-25T07:30:37;100549.06;;;7.86;86.55
81897;BME280;71360;43.506;1.500;2024-01-25T07:33:03;100552.72;;;7.80;86.46
81897;BME280;71360;43.506;1.500;2024-01-25T07:35:28;100547.53;;;7.74;86.54
81897;BME280;71360;43.506;1.500;2024-01-25T07:37:54;100561.81;;;7.68;86.71
81897;BME280;71360;43.506;1.500;2024-01-25T07:40:19;100553.06;;;7.63;86.31
81897;BME280;71360;43.506;1.500;2024-01-25T07:42:46;100554.91;;;7.58;86.54
81897;BME280;71360;43.506;1.500;2024-01-25T07:45:12;100560.28;;;7.53;86.23
81897;BME280;71360;43.506;1.500;2024-01-25T07:47:41;100565.66;;;7.50;86.17
81897;BME280;71360;43.506;1.500;2024-01-25T07:50:06;100567.53;;;7.45;86.42
81897;BME280;71360;43.506;1.500;2024-01-25T07:52:32;100562.25;;;7.42;86.17
81897;BME280;71360;43.506;1.500;2024-01-25T07:58:19;100571.25;;;7.35;86.36
81897;BME280;71360;43.506;1.500;2024-01-25T08:00:45;100565.94;;;7.35;87.12
81897;BME280;71360;43.506;1.500;2024-01-25T08:03:11;100568.59;;;7.35;86.92
81897;BME280;71360;43.506;1.500;2024-01-25T08:05:36;100568.56;;;7.36;86.49
81897;BME280;71360;43.506;1.500;2024-01-25T08:08:02;100573.00;;;7.37;87.02
81897;BME280;71360;43.506;1.500;2024-01-25T08:10:27;100569.41;;;7.40;86.94
81897;BME280;71360;43.506;1.500;2024-01-25T08:12:53;100571.09;;;7.44;86.86
81897;BME280;71360;43.506;1.500;2024-01-25T08:15:19;100566.63;;;7.46;87.17
81897;BME280;71360;43.506;1.500;2024-01-25T08:17:44;100564.81;;;7.50;87.37
81897;BME280;71360;43.506;1.500;2024-01-25T08:20:10;100554.06;;;7.54;87.55
81897;BME280;71360;43.506;1.500;2024-01-25T08:22:38;100553.09;;;7.58;87.44
81897;BME280;71360;43.506;1.500;2024-01-25T08:25:04;100556.56;;;7.64;87.90
81897;BME280;71360;43.506;1.500;2024-01-25T08:27:30;100559.16;;;7.70;87.52
81897;BME280;71360;43.506;1.500;2024-01-25T08:29:55;100558.16;;;7.75;87.63
81897;BME280;71360;43.506;1.500;2024-01-25T08:32:21;100556.31;;;7.77;87.97
81897;BME280;71360;43.506;1.500;2024-01-25T08:34:47;100562.41;;;7.84;87.65
81897;BME280;71360;43.506;1.500;2024-01-25T08:37:12;100571.19;;;7.89;88.11
81897;BME280;71360;43.506;1.500;2024-01-25T08:39:38;100568.44;;;7.94;88.01
81897;BME280;71360;43.506;1.500;2024-01-25T08:42:04;100568.38;;;7.99;87.74
81897;BME280;71360;43.506;1.500;2024-01-25T08:44:32;100571.84;;;8.04;87.85
81897;BME280;71360;43.506;1.500;2024-01-25T08:46:57;100569.06;;;8.08;87.91
81897;BME280;71360;43.506;1.500;2024-01-25T08:49:23;100565.41;;;8.14;88.67
81897;BME280;71360;43.506;1.500;2024-01-25T08:51:48;100559.09;;;8.20;88.02
81897;BME280;71360;43.506;1.500;2024-01-25T08:54:14;100563.44;;;8.25;87.99
81897;BME280;71360;43.506;1.500;2024-01-25T08:56:39;100559.72;;;8.33;87.88
81897;BME280;71360;43.506;1.500;2024-01-25T08:59:05;100564.88;;;8.40;88.39
81897;BME280;71360;43.506;1.500;2024-01-25T09:01:31;100562.13;;;8.47;88.43
81897;BME280;71360;43.506;1.500;2024-01-25T09:03:56;100568.25;;;8.52;88.23
81897;BME280;71360;43.506;1.500;2024-01-25T09:06:27;100570.84;;;8.55;88.25
81897;BME280;71360;43.506;1.500;2024-01-25T09:08:52;100568.09;;;8.59;88.19
81897;BME280;71360;43.506;1.500;2024-01-25T09:11:19;100569.78;;;8.64;88.22
81897;BME280;71360;43.506;1.500;2024-01-25T09:13:44;100575.00;;;8.68;88.39
81897;BME280;71360;43.506;1.500;2024-01-25T09:16:13;100574.91;;;8.73;88.35
81897;BME280;71360;43.506;1.500;2024-01-25T09:18:38;100581.06;;;8.76;88.08
81897;BME280;71360;43.506;1.500;2024-01-25T09:21:04;100578.28;;;8.81;88.39
81897;BME280;71360;43.506;1.500;2024-01-25T09:23:29;100584.47;;;8.83;88.18
81897;BME280;71360;43.506;1.500;2024-01-25T09:25:55;100588.81;;;8.87;88.31
81897;BME280;71360;43.506;1.500;2024-01-25T09:28:20;100578.13;;;8.89;88.22
81897;BME280;71360;43.506;1.500;2024-01-25T09:30:46;100588.75;;;8.90;88.14
81897;BME280;71360;43.506;1.500;2024-01-25T09:33:11;100581.56;;;8.94;88.12
81897;BME280;71360;43.506;1.500;2024-01-25T09:35:37;100577.09;;;8.94;88.21
81897;BME280;71360;43.506;1.500;2024-01-25T09:38:03;100581.44;;;8.99;88.28
81897;BME280;71360;43.506;1.500;2024-01-25T09:40:28;100581.28;;;9.06;89.04
81897;BME280;71360;43.506;1.500;2024-01-25T09:42:54;100579.28;;;9.16;88.76
81897;BME280;71360;43.506;1.500;2024-01-25T09:45:19;100578.34;;;9.19;88.25
81897;BME280;71360;43.506;1.500;2024-01-25T09:47:45;100581.03;;;9.17;87.89
81897;BME280;71360;43.506;1.500;2024-01-25T09:50:11;100585.56;;;9.13;87.82
81897;BME280;71360;43.506;1.500;2024-01-25T09:52:38;100575.84;;;9.11;88.35
81897;BME280;71360;43.506;1.500;2024-01-25T09:55:06;100579.22;;;9.18;88.66
81897;BME280;71360;43.506;1.500;2024-01-25T09:57:35;100572.88;;;9.25;89.21
81897;BME280;71360;43.506;1.500;2024-01-25T10:00:04;100571.75;;;9.34;88.95
81897;BME280;71360;43.506;1.500;2024-01-25T10:02:30;100575.19;;;9.39;88.90
81897;BME280;71360;43.506;1.500;2024-01-25T10:04:56;100575.94;;;9.45;88.87
81897;BME280;71360;43.506;1.500;2024-01-25T10:07:46;100576.59;;;9.54;89.42
81897;BME280;71360;43.506;1.500;2024-01-25T10:10:13;100575.47;;;9.62;88.97
81897;BME280;71360;43.506;1.500;2024-01-25T10:12:40;100573.44;;;9.74;88.69
81897;BME280;71360;43.506;1.500;2024-01-25T10:15:09;100562.47;;;9.85;88.58
81897;BME280;71360;43.506;1.500;2024-01-25T10:17:35;100573.66;;;9.99;89.16
81897;BME280;71360;43.506;1.500;2024-01-25T10:20:01;100564.44;;;10.11;88.82
81897;BME280;71360;43.506;1.500;2024-01-25T10:22:26;100567.63;;;10.25;88.82
81897;BME280;71360;43.506;1.500;2024-01-25T10:28:14;100567.69;;;10.55;88.85
81897;BME280;71360;43.506;1.500;2024-01-25T10:34:01;100565.09;;;10.82;89.21
81897;BME280;71360;43.506;1.500;2024-01-25T10:36:30;100558.44;;;10.95;88.93
81897;BME280;71360;43.506;1.500;2024-01-25T10:38:58;100565.13;;;11.10;88.81
81897;BME280;71360;43.506;1.500;2024-01-25T10:41:28;100559.31;;;11.24;89.00
81897;BME280;71360;43.506;1.500;2024-01-25T10:47:30;100547.72;;;11.52;88.31
81897;BME280;71360;43.506;1.500;2024-01-25T10:50:13;100538.44;;;11.62;87.71
81897;BME280;71360;43.506;1.500;2024-01-25T10:53:00;100530.25;;;11.67;87.93
81897;BME280;71360;43.506;1.500;2024-01-25T10:59:03;100525.50;;;11.75;87.54
81897;BME280;71360;43.506;1.500;2024-01-25T11:01:29;100521.72;;;11.81;87.42
81897;BME280;71360;43.506;1.500;2024-01-25T11:07:17;100505.47;;;11.87;86.24
81897;BME280;71360;43.506;1.500;2024-01-25T11:09:44;100504.56;;;11.87;85.92
81897;BME280;71360;43.506;1.500;2024-01-25T11:12:14;100501.81;;;11.88;85.68
81897;BME280;71360;43.506;1.500;2024-01-25T11:14:42;100498.22;;;11.89;85.76
81897;BME280;71360;43.506;1.500;2024-01-25T11:17:19;100494.50;;;11.93;85.15
81897;BME280;71360;43.506;1.500;2024-01-25T11:19:45;100491.06;;;11.90;84.90
81897;BME280;71360;43.506;1.500;2024-01-25T11:22:13;100479.53;;;11.88;85.09
81897;BME280;71360;43.506;1.500;2024-01-25T11:24:39;100479.66;;;11.85;84.88
81897;BME280;71360;43.506;1.500;2024-01-25T11:27:05;100473.41;;;11.84;85.22
81897;BME280;71360;43.506;1.500;2024-01-25T11:29:32;100467.25;;;11.82;85.31
81897;BME280;71360;43.506;1.500;2024-01-25T11:31:58;100469.03;;;11.81;85.70
81897;BME280;71360;43.506;1.500;2024-01-25T11:34:24;100462.94;;;11.78;85.28
81897;BME280;71360;43.506;1.500;2024-01-25T11:36:50;100458.59;;;11.74;85.45
81897;BME280;71360;43.506;1.500;2024-01-25T11:39:16;100464.94;;;11.71;84.87
81897;BME280;71360;43.506;1.500;2024-01-25T11:41:43;100457.94;;;11.67;85.24
81897;BME280;71360;43.506;1.500;2024-01-25T11:44:10;100453.56;;;11.64;85.20
81897;BME280;71360;43.506;1.500;2024-01-25T11:46:36;100451.03;;;11.60;84.90
81897;BME280;71360;43.506;1.500;2024-01-25T11:49:01;100451.22;;;11.55;85.04
81897;BME280;71360;43.506;1.500;2024-01-25T11:51:27;100443.38;;;11.51;85.24
81897;BME280;71360;43.506;1.500;2024-01-25T11:57:14;100438.16;;;11.46;85.27
81897;BME280;71360;43.506;1.500;2024-01-25T11:59:40;100433.72;;;11.45;85.04
81897;BME280;71360;43.506;1.500;2024-01-25T12:02:05;100429.25;;;11.45;85.24
81897;BME280;71360;43.506;1.500;2024-01-25T12:04:31;100423.97;;;11.44;85.21
81897;BME280;71360;43.506;1.500;2024-01-25T12:06:56;100416.78;;;11.44;85.34
81897;BME280;71360;43.506;1.500;2024-01-25T12:09:22;100412.31;;;11.45;85.05
81897;BME280;71360;43.506;1.500;2024-01-25T12:11:49;100413.06;;;11.48;85.19
81897;BME280;71360;43.506;1.500;2024-01-25T12:17:36;100400.28;;;11.57;85.04
81897;BME280;71360;43.506;1.500;2024-01-25T12:26:04;100394.16;;;11.78;85.24
81897;BME280;71360;43.506;1.500;2024-01-25T12:28:30;100394.84;;;11.83;85.37
81897;BME280;71360;43.506;1.500;2024-01-25T12:30:59;100383.03;;;11.89;84.75
81897;BME280;71360;43.506;1.500;2024-01-25T12:33:25;100381.03;;;11.96;84.59
81897;BME280;71360;43.506;1.500;2024-01-25T12:35:51;100379.00;;;12.03;84.90
81897;BME280;71360;43.506;1.500;2024-01-25T12:38:16;100365.31;;;12.10;84.35
81897;BME280;71360;43.506;1.500;2024-01-25T12:40:45;100375.66;;;12.20;84.45
81897;BME280;71360;43.506;1.500;2024-01-25T12:43:12;100369.94;;;12.29;84.45
81897;BME280;71360;43.506;1.500;2024-01-25T12:45:37;100368.75;;;12.36;84.01
81897;BME280;71360;43.506;1.500;2024-01-25T12:48:03;100356.84;;;12.43;83.91
81897;BME280;71360;43.506;1.500;2024-01-25T12:50:29;100355.66;;;12.50;84.01
81897;BME280;71360;43.506;1.500;2024-01-25T12:52:54;100359.78;;;12.59;83.68
81897;BME280;71360;43.506;1.500;2024-01-25T12:55:20;100354.09;;;12.67;83.11
81897;BME280;71360;43.506;1.500;2024-01-25T12:57:45;100352.03;;;12.74;82.91
81897;BME280;71360;43.506;1.500;2024-01-25T13:00:11;100353.50;;;12.81;82.55
81897;BME280;71360;43.506;1.500;2024-01-25T13:02:37;100356.81;;;12.88;82.45
81897;BME280;71360;43.506;1.500;2024-01-25T13:05:03;100349.38;;;12.94;82.06
81897;BME280;71360;43.506;1.500;2024-01-25T13:07:28;100338.47;;;12.99;81.73
81897;BME280;71360;43.506;1.500;2024-01-25T13:09:54;100339.13;;;13.04;81.75
81897;BME280;71360;43.506;1.500;2024-01-25T13:12:19;100346.91;;;13.10;81.58
81897;BME280;71360;43.506;1.500;2024-01-25T13:18:06;100342.53;;;13.28;81.15
81897;BME280;71360;43.506;1.500;2024-01-25T13:20:32;100345.75;;;13.38;81.16
81897;BME280;71360;43.506;1.500;2024-01-25T13:22:57;100346.28;;;13.46;80.64
81897;BME280;71360;43.506;1.500;2024-01-25T13:25:23;100345.81;;;13.56;80.66
81897;BME280;71360;43.506;1.500;2024-01-25T13:27:48;100342.66;;;13.66;80.60
81897;BME280;71360;43.506;1.500;2024-01-25T13:30:17;100340.38;;;13.78;80.23
81897;BME280;71360;43.506;1.500;2024-01-25T13:32:42;100337.25;;;13.87;80.34
81897;BME280;71360;43.506;1.500;2024-01-25T13:35:08;100345.75;;;13.97;80.03
81897;BME280;71360;43.506;1.500;2024-01-25T13:37:34;100336.28;;;14.07;79.83
81897;BME280;71360;43.506;1.500;2024-01-25T13:39:59;100334.03;;;14.17;79.21
81897;BME280;71360;43.506;1.500;2024-01-25T13:42:24;100323.84;;;14.24;78.86
81897;BME280;71360;43.506;1.500;2024-01-25T13:44:50;100313.53;;;14.33;79.11
81897;BME280;71360;43.506;1.500;2024-01-25T13:47:15;100315.91;;;14.40;78.47
81897;BME280;71360;43.506;1.500;2024-01-25T13:49:41;100317.34;;;14.47;78.47
81897;BME280;71360;43.506;1.500;2024-01-25T13:52:06;100310.66;;;14.56;78.22
81897;BME280;71360;43.506;1.500;2024-01-25T13:54:32;100310.22;;;14.65;78.29
81897;BME280;71360;43.506;1.500;2024-01-25T13:56:57;100318.63;;;14.76;78.07
81897;BME280;71360;43.506;1.500;2024-01-25T13:59:23;100309.22;;;14.85;77.47
81897;BME280;71360;43.506;1.500;2024-01-25T14:01:50;100310.38;;;14.97;77.51
81897;BME280;71360;43.506;1.500;2024-01-25T14:04:16;100309.91;;;15.06;77.35
81897;BME280;71360;43.506;1.500;2024-01-25T14:06:41;100319.31;;;15.15;77.09
81897;BME280;71360;43.506;1.500;2024-01-25T14:09:08;100316.94;;;15.26;76.73
81897;BME280;71360;43.506;1.500;2024-01-25T14:11:34;100310.19;;;15.35;76.10
81897;BME280;71360;43.506;1.500;2024-01-25T14:14:00;100309.78;;;15.43;75.78
81897;BME280;71360;43.506;1.500;2024-01-25T14:16:25;100298.53;;;15.52;75.47
81897;BME280;71360;43.506;1.500;2024-01-25T14:18:51;100306.09;;;15.61;75.48
81897;BME280;71360;43.506;1.500;2024-01-25T14:21:16;100297.59;;;15.69;74.75
81897;BME280;71360;43.506;1.500;2024-01-25T14:23:46;100304.41;;;15.76;74.58
81897;BME280;71360;43.506;1.500;2024-01-25T14:26:11;100300.44;;;15.83;74.30
81897;BME280;71360;43.506;1.500;2024-01-25T14:28:37;100306.34;;;15.90;73.90
81897;BME280;71360;43.506;1.500;2024-01-25T14:31:02;100308.59;;;15.98;73.76
81897;BME280;71360;43.506;1.500;2024-01-25T14:33:27;100315.41;;;16.05;73.73
81897;BME280;71360;43.506;1.500;2024-01-25T14:35:53;100308.59;;;16.14;73.50